Terminal Aerodrome Forecast
Issued by NWS Wilmington, OH

Current Version | Previous Version | Graphics & Text | Print | Product List | Glossary On
Versions: 1 2 3 4 5 6 7 8 9 10 11 12 13 14 15 16 17 18 19
000
FTUS41 KILN 271400 AAB
TAFDAY
TAF AMD
KDAY 271449Z 2715/2812 24010KT 6SM BR BKN012
      TEMPO 2715/2716 BKN006
     FM271600 26012G22KT P6SM -SHRA VCTS BKN035CB
      TEMPO 2718/2720 3SM -TSRA
     FM272000 28014G23KT P6SM VCSH BKN040
     FM280100 28010KT P6SM SCT030 BKN250=

USA.gov is the U.S. government's official web portal to all federal, state and local government web resources and services.